AAL558 KDFW-KSLC
Flight info
| Callsign | AAL558 |
|---|---|
| Flight time | 2h 29m |
| Altitude | 36000 |
| Route | HUDAD2 HUDAD PNH ALS JNC J12 HELPR PITTT2 |
| Aircraft | A320/M-SDE3FGHIRWY/LB1 |
Departure
| Time | 2026-05-05 16:00 |
|---|---|
| Airport | Dallas Fort Worth International Airport (KDFW) |
Arrival
| Time | 2026-05-05 18:30 |
|---|---|
| Airport | Salt Lake City International Airport (KSLC) |
| Time | Latitude | Longitude | Altitude | Speed | Heading |
|---|---|---|---|---|---|
| 2026-05-05 15:27 | 32.90396 | -97.04572 | 598 ft | 0 kts | 81° |
| 2026-05-05 15:50 | 32.90394 | -97.04587 | 598 ft | 4 kts | 77° |
| 2026-05-05 15:50 | 32.90385 | -97.04617 | 598 ft | 4 kts | 56° |
| 2026-05-05 15:51 | 32.90368 | -97.04635 | 598 ft | 4 kts | 4° |
| 2026-05-05 15:51 | 32.90358 | -97.04635 | 598 ft | 1 kts | 354° |
| 2026-05-05 15:51 | 32.90357 | -97.04635 | 598 ft | 0 kts | 354° |
| 2026-05-05 15:54 | 32.90362 | -97.04636 | 598 ft | 1 kts | 354° |
| 2026-05-05 15:54 | 32.90372 | -97.04637 | 598 ft | 2 kts | 354° |
| 2026-05-05 15:54 | 32.90447 | -97.04640 | 598 ft | 18 kts | 359° |
| 2026-05-05 15:54 | 32.90471 | -97.04724 | 598 ft | 11 kts | 270° |
| 2026-05-05 15:55 | 32.90472 | -97.04819 | 598 ft | 12 kts | 270° |
| 2026-05-05 15:55 | 32.90512 | -97.04883 | 598 ft | 10 kts | 354° |
| 2026-05-05 15:55 | 32.90580 | -97.04888 | 598 ft | 9 kts | 359° |
| 2026-05-05 15:55 | 32.90642 | -97.04890 | 598 ft | 8 kts | 358° |
| 2026-05-05 15:56 | 32.90698 | -97.04889 | 598 ft | 10 kts | 2° |
| 2026-05-05 15:56 | 32.90781 | -97.04884 | 598 ft | 12 kts | 2° |
| 2026-05-05 15:56 | 32.90859 | -97.04880 | 598 ft | 10 kts | 2° |
| 2026-05-05 15:56 | 32.90928 | -97.04878 | 598 ft | 9 kts | 358° |
| 2026-05-05 15:57 | 32.90988 | -97.04882 | 598 ft | 8 kts | 358° |
| 2026-05-05 15:57 | 32.91043 | -97.04883 | 598 ft | 8 kts | 360° |
| 2026-05-05 15:57 | 32.91094 | -97.04882 | 598 ft | 7 kts | 1° |
| 2026-05-05 15:57 | 32.91179 | -97.04881 | 598 ft | 26 kts | 1° |
| 2026-05-05 15:58 | 32.91362 | -97.04881 | 598 ft | 18 kts | 0° |
| 2026-05-05 15:58 | 32.91423 | -97.04944 | 598 ft | 11 kts | 279° |
| 2026-05-05 15:58 | 32.91423 | -97.04953 | 598 ft | 0 kts | 271° |
| 2026-05-05 15:58 | 32.91423 | -97.04958 | 598 ft | 4 kts | 271° |
| 2026-05-05 15:59 | 32.91421 | -97.05053 | 598 ft | 5 kts | 259° |
| 2026-05-05 15:59 | 32.91395 | -97.05080 | 598 ft | 4 kts | 167° |
| 2026-05-05 15:59 | 32.91360 | -97.05076 | 598 ft | 7 kts | 178° |
| 2026-05-05 15:59 | 32.91186 | -97.05078 | 598 ft | 55 kts | 181° |
| 2026-05-05 16:00 | 32.90588 | -97.05081 | 598 ft | 115 kts | 181° |
| 2026-05-05 16:00 | 32.89599 | -97.05083 | 653 ft | 156 kts | 182° |
| 2026-05-05 16:00 | 32.88572 | -97.05039 | 1497 ft | 146 kts | 182° |
| 2026-05-05 16:00 | 32.87905 | -97.05002 | 1934 ft | 146 kts | 185° |
| 2026-05-05 16:01 | 32.86873 | -97.05018 | 2556 ft | 150 kts | 200° |
| 2026-05-05 16:01 | 32.85850 | -97.05336 | 2808 ft | 167 kts | 205° |
| 2026-05-05 16:01 | 32.84617 | -97.05759 | 3060 ft | 190 kts | 205° |
| 2026-05-05 16:01 | 32.83256 | -97.06229 | 3286 ft | 216 kts | 204° |
| 2026-05-05 16:02 | 32.81736 | -97.06748 | 3617 ft | 239 kts | 203° |
| 2026-05-05 16:02 | 32.80096 | -97.07299 | 4231 ft | 249 kts | 202° |
| 2026-05-05 16:02 | 32.78459 | -97.08008 | 4974 ft | 249 kts | 219° |
| 2026-05-05 16:02 | 32.77366 | -97.09535 | 5686 ft | 244 kts | 251° |
| 2026-05-05 16:03 | 32.76983 | -97.11500 | 6484 ft | 246 kts | 260° |
| 2026-05-05 16:03 | 32.76667 | -97.13509 | 7395 ft | 249 kts | 262° |
| 2026-05-05 16:03 | 32.76625 | -97.15579 | 8129 ft | 257 kts | 273° |
| 2026-05-05 16:03 | 32.76748 | -97.17723 | 8804 ft | 262 kts | 273° |
| 2026-05-05 16:04 | 32.76884 | -97.19903 | 9563 ft | 265 kts | 273° |
| 2026-05-05 16:04 | 32.77026 | -97.22097 | 10284 ft | 270 kts | 273° |
| 2026-05-05 16:04 | 32.77376 | -97.24386 | 10537 ft | 295 kts | 286° |
| 2026-05-05 16:04 | 32.78276 | -97.26682 | 10727 ft | 320 kts | 295° |
| 2026-05-05 16:05 | 32.79356 | -97.29081 | 11146 ft | 332 kts | 295° |
| 2026-05-05 16:05 | 32.80450 | -97.31515 | 11811 ft | 336 kts | 295° |
| 2026-05-05 16:05 | 32.81551 | -97.33972 | 12556 ft | 337 kts | 294° |
| 2026-05-05 16:05 | 32.82651 | -97.36439 | 13314 ft | 338 kts | 294° |
| 2026-05-05 16:06 | 32.83757 | -97.38919 | 13993 ft | 340 kts | 294° |
| 2026-05-05 16:06 | 32.84868 | -97.41413 | 14625 ft | 343 kts | 294° |
| 2026-05-05 16:06 | 32.85983 | -97.43927 | 15243 ft | 345 kts | 293° |
| 2026-05-05 16:06 | 32.87105 | -97.46460 | 15865 ft | 348 kts | 293° |
| 2026-05-05 16:07 | 32.88237 | -97.49015 | 16494 ft | 351 kts | 292° |
| 2026-05-05 16:07 | 32.89379 | -97.51593 | 17280 ft | 353 kts | 292° |
| 2026-05-05 16:07 | 32.90528 | -97.54189 | 17914 ft | 356 kts | 292° |
| 2026-05-05 16:07 | 32.91689 | -97.56813 | 18518 ft | 359 kts | 292° |
| 2026-05-05 16:08 | 32.92850 | -97.59438 | 19144 ft | 360 kts | 292° |
| 2026-05-05 16:08 | 32.94015 | -97.62069 | 19781 ft | 359 kts | 292° |
| 2026-05-05 16:08 | 32.95182 | -97.64696 | 20441 ft | 357 kts | 292° |
| 2026-05-05 16:08 | 32.96340 | -97.67304 | 21049 ft | 357 kts | 292° |
| 2026-05-05 16:09 | 32.97493 | -97.69919 | 21631 ft | 356 kts | 292° |
| 2026-05-05 16:09 | 32.98644 | -97.72535 | 22205 ft | 356 kts | 292° |
| 2026-05-05 16:09 | 32.99756 | -97.75163 | 22748 ft | 355 kts | 290° |
| 2026-05-05 16:09 | 33.00766 | -97.77754 | 23257 ft | 355 kts | 289° |
| 2026-05-05 16:10 | 33.01791 | -97.80520 | 23720 ft | 355 kts | 289° |
| 2026-05-05 16:10 | 33.02773 | -97.83228 | 24077 ft | 356 kts | 289° |
| 2026-05-05 16:10 | 33.03755 | -97.85941 | 24412 ft | 358 kts | 289° |
| 2026-05-05 16:10 | 33.04752 | -97.88672 | 24587 ft | 360 kts | 289° |
| 2026-05-05 16:11 | 33.05765 | -97.91411 | 24926 ft | 362 kts | 289° |
| 2026-05-05 16:11 | 33.08871 | -97.99714 | 25888 ft | 369 kts | 289° |
| 2026-05-05 16:12 | 33.09923 | -98.02524 | 26187 ft | 372 kts | 289° |
| 2026-05-05 16:12 | 33.12037 | -98.08193 | 26795 ft | 376 kts | 289° |
| 2026-05-05 16:13 | 33.15242 | -98.16805 | 27677 ft | 381 kts | 289° |
| 2026-05-05 16:13 | 33.16320 | -98.19703 | 27946 ft | 383 kts | 289° |
| 2026-05-05 16:13 | 33.17400 | -98.22614 | 28205 ft | 385 kts | 289° |
| 2026-05-05 16:14 | 33.19576 | -98.28483 | 28718 ft | 388 kts | 289° |
| 2026-05-05 16:14 | 33.21772 | -98.34398 | 29209 ft | 390 kts | 289° |
| 2026-05-05 16:15 | 33.23967 | -98.40324 | 29823 ft | 390 kts | 288° |
| 2026-05-05 16:15 | 33.26156 | -98.46234 | 30435 ft | 388 kts | 288° |
| 2026-05-05 16:16 | 33.28301 | -98.52043 | 31026 ft | 385 kts | 288° |
| 2026-05-05 16:16 | 33.30467 | -98.57933 | 31657 ft | 382 kts | 288° |
| 2026-05-05 16:17 | 33.32594 | -98.63723 | 32266 ft | 379 kts | 288° |
| 2026-05-05 16:17 | 33.33649 | -98.66596 | 32569 ft | 377 kts | 288° |
| 2026-05-05 16:18 | 33.35749 | -98.72308 | 33176 ft | 374 kts | 288° |
| 2026-05-05 16:18 | 33.36792 | -98.75154 | 33461 ft | 373 kts | 287° |
| 2026-05-05 16:18 | 33.38864 | -98.80820 | 34045 ft | 370 kts | 287° |
| 2026-05-05 16:19 | 33.39891 | -98.83635 | 34312 ft | 368 kts | 287° |
| 2026-05-05 16:19 | 33.40916 | -98.86441 | 34587 ft | 367 kts | 287° |
| 2026-05-05 16:19 | 33.42953 | -98.92021 | 35076 ft | 365 kts | 287° |
| 2026-05-05 16:20 | 33.44971 | -98.97570 | 35533 ft | 363 kts | 287° |
| 2026-05-05 16:20 | 33.46977 | -99.03114 | 35687 ft | 363 kts | 287° |
| 2026-05-05 16:22 | 33.52024 | -99.17023 | 35681 ft | 365 kts | 287° |
| 2026-05-05 16:23 | 33.56049 | -99.28189 | 35681 ft | 365 kts | 287° |
| 2026-05-05 16:23 | 33.59062 | -99.36567 | 35678 ft | 365 kts | 286° |
| 2026-05-05 16:24 | 33.61116 | -99.42131 | 35713 ft | 369 kts | 291° |
| 2026-05-05 16:24 | 33.64313 | -99.47116 | 35705 ft | 382 kts | 301° |
| 2026-05-05 16:25 | 33.66079 | -99.49509 | 35697 ft | 383 kts | 301° |
| 2026-05-05 16:25 | 33.71384 | -99.56695 | 35704 ft | 384 kts | 301° |
| 2026-05-05 16:26 | 33.78458 | -99.66336 | 35701 ft | 385 kts | 301° |
| 2026-05-05 16:27 | 33.81998 | -99.71159 | 35716 ft | 385 kts | 301° |
| 2026-05-05 16:27 | 33.85532 | -99.75986 | 35755 ft | 384 kts | 301° |
| 2026-05-05 16:28 | 33.89065 | -99.80820 | 35748 ft | 384 kts | 301° |
| 2026-05-05 16:28 | 33.92565 | -99.85618 | 35771 ft | 384 kts | 301° |
| 2026-05-05 16:29 | 33.96091 | -99.90452 | 35765 ft | 384 kts | 301° |
| 2026-05-05 16:29 | 33.99612 | -99.95282 | 35760 ft | 384 kts | 301° |
| 2026-05-05 16:30 | 34.03129 | -100.00122 | 35770 ft | 383 kts | 300° |
| 2026-05-05 16:30 | 34.06634 | -100.04964 | 35801 ft | 383 kts | 300° |
| 2026-05-05 16:31 | 34.10142 | -100.09802 | 35793 ft | 383 kts | 300° |
| 2026-05-05 16:31 | 34.13643 | -100.14628 | 35813 ft | 382 kts | 300° |
| 2026-05-05 16:32 | 34.17141 | -100.19462 | 35827 ft | 382 kts | 300° |
| 2026-05-05 16:32 | 34.20628 | -100.24294 | 35855 ft | 381 kts | 300° |
| 2026-05-05 16:33 | 34.24107 | -100.29125 | 35861 ft | 381 kts | 300° |
| 2026-05-05 16:33 | 34.27584 | -100.33955 | 35801 ft | 380 kts | 300° |
| 2026-05-05 16:34 | 34.31052 | -100.38774 | 35814 ft | 379 kts | 300° |
| 2026-05-05 16:34 | 34.34502 | -100.43578 | 35815 ft | 378 kts | 300° |
| 2026-05-05 16:35 | 34.37945 | -100.48386 | 35810 ft | 378 kts | 300° |
| 2026-05-05 16:35 | 34.41385 | -100.53195 | 35810 ft | 378 kts | 300° |
| 2026-05-05 16:36 | 34.44823 | -100.58005 | 35818 ft | 378 kts | 300° |
| 2026-05-05 16:36 | 34.48266 | -100.62822 | 35817 ft | 378 kts | 300° |
| 2026-05-05 16:37 | 34.51702 | -100.67642 | 35817 ft | 378 kts | 300° |
| 2026-05-05 16:37 | 34.55138 | -100.72470 | 35840 ft | 378 kts | 299° |
| 2026-05-05 16:38 | 34.58575 | -100.77298 | 35836 ft | 378 kts | 299° |
| 2026-05-05 16:38 | 34.62002 | -100.82123 | 35828 ft | 377 kts | 299° |
| 2026-05-05 16:39 | 34.65426 | -100.86948 | 35822 ft | 377 kts | 299° |
| 2026-05-05 16:39 | 34.68846 | -100.91768 | 35821 ft | 376 kts | 299° |
| 2026-05-05 16:40 | 34.72254 | -100.96594 | 35818 ft | 376 kts | 299° |
| 2026-05-05 16:40 | 34.75658 | -101.01419 | 35856 ft | 376 kts | 299° |
| 2026-05-05 16:41 | 34.78482 | -101.05432 | 35845 ft | 376 kts | 299° |
| 2026-05-05 16:41 | 34.81880 | -101.10264 | 35835 ft | 376 kts | 299° |
| 2026-05-05 16:42 | 34.85289 | -101.15100 | 35835 ft | 376 kts | 299° |
| 2026-05-05 16:42 | 34.88688 | -101.19929 | 35831 ft | 376 kts | 299° |
| 2026-05-05 16:43 | 34.92085 | -101.24773 | 35814 ft | 376 kts | 299° |
| 2026-05-05 16:43 | 34.95480 | -101.29616 | 35829 ft | 376 kts | 299° |
| 2026-05-05 16:44 | 34.98871 | -101.34478 | 35856 ft | 378 kts | 298° |
| 2026-05-05 16:44 | 35.02280 | -101.39367 | 35840 ft | 379 kts | 298° |
| 2026-05-05 16:45 | 35.05702 | -101.44264 | 35829 ft | 380 kts | 298° |
| 2026-05-05 16:45 | 35.09128 | -101.49177 | 35829 ft | 380 kts | 298° |
| 2026-05-05 16:46 | 35.12553 | -101.54097 | 35834 ft | 380 kts | 298° |
| 2026-05-05 16:46 | 35.15980 | -101.59027 | 35960 ft | 380 kts | 297° |
| 2026-05-05 16:47 | 35.19400 | -101.63958 | 36012 ft | 380 kts | 298° |
| 2026-05-05 16:47 | 35.22813 | -101.68894 | 35988 ft | 380 kts | 297° |
| 2026-05-05 16:48 | 35.25794 | -101.74098 | 35966 ft | 372 kts | 292° |
| 2026-05-05 16:48 | 35.28656 | -101.79364 | 35955 ft | 372 kts | 292° |
| 2026-05-05 16:49 | 35.31535 | -101.84646 | 35930 ft | 373 kts | 292° |
| 2026-05-05 16:49 | 35.34401 | -101.89928 | 35909 ft | 373 kts | 292° |
| 2026-05-05 16:50 | 35.37269 | -101.95226 | 35882 ft | 373 kts | 292° |
| 2026-05-05 16:50 | 35.40133 | -102.00518 | 35859 ft | 372 kts | 292° |
| 2026-05-05 16:51 | 35.42992 | -102.05817 | 35839 ft | 373 kts | 291° |
| 2026-05-05 16:51 | 35.45832 | -102.11089 | 35835 ft | 373 kts | 291° |
| 2026-05-05 16:52 | 35.48693 | -102.16409 | 35834 ft | 374 kts | 291° |
| 2026-05-05 16:52 | 35.51521 | -102.21686 | 35843 ft | 374 kts | 291° |
| 2026-05-05 16:53 | 35.54415 | -102.27089 | 35848 ft | 375 kts | 291° |
| 2026-05-05 16:53 | 35.57289 | -102.32440 | 35852 ft | 375 kts | 291° |
| 2026-05-05 16:54 | 35.60155 | -102.37798 | 35865 ft | 375 kts | 291° |
| 2026-05-05 16:54 | 35.63019 | -102.43171 | 35905 ft | 376 kts | 291° |
| 2026-05-05 16:55 | 35.65891 | -102.48553 | 35906 ft | 377 kts | 291° |
| 2026-05-05 16:55 | 35.68761 | -102.53932 | 35892 ft | 377 kts | 291° |
| 2026-05-05 16:56 | 35.71634 | -102.59331 | 35885 ft | 377 kts | 291° |
| 2026-05-05 16:56 | 35.74500 | -102.64725 | 35886 ft | 377 kts | 291° |
| 2026-05-05 16:57 | 35.77360 | -102.70133 | 35886 ft | 377 kts | 291° |
| 2026-05-05 16:57 | 35.80219 | -102.75542 | 35888 ft | 377 kts | 291° |
| 2026-05-05 16:58 | 35.83073 | -102.80953 | 35920 ft | 377 kts | 291° |
| 2026-05-05 16:58 | 35.85929 | -102.86374 | 35901 ft | 377 kts | 291° |
| 2026-05-05 16:59 | 35.88788 | -102.91803 | 35901 ft | 378 kts | 291° |
| 2026-05-05 16:59 | 35.91646 | -102.97235 | 35880 ft | 378 kts | 291° |
| 2026-05-05 17:00 | 35.94506 | -103.02676 | 35879 ft | 378 kts | 290° |
| 2026-05-05 17:00 | 35.97360 | -103.08118 | 35876 ft | 378 kts | 290° |
| 2026-05-05 17:01 | 36.00210 | -103.13571 | 35875 ft | 378 kts | 290° |
| 2026-05-05 17:01 | 36.03070 | -103.19040 | 35897 ft | 379 kts | 290° |
| 2026-05-05 17:02 | 36.05931 | -103.24521 | 35893 ft | 380 kts | 290° |
| 2026-05-05 17:02 | 36.08798 | -103.30016 | 35873 ft | 380 kts | 290° |
| 2026-05-05 17:03 | 36.11658 | -103.35522 | 35870 ft | 381 kts | 290° |
| 2026-05-05 17:03 | 36.14499 | -103.41011 | 35873 ft | 381 kts | 290° |
| 2026-05-05 17:04 | 36.17363 | -103.46533 | 35878 ft | 381 kts | 290° |
| 2026-05-05 17:04 | 36.20219 | -103.52052 | 35886 ft | 382 kts | 290° |
| 2026-05-05 17:05 | 36.23084 | -103.57606 | 35899 ft | 382 kts | 290° |
| 2026-05-05 17:05 | 36.25954 | -103.63170 | 35888 ft | 383 kts | 290° |
| 2026-05-05 17:06 | 36.28816 | -103.68737 | 35880 ft | 383 kts | 290° |
| 2026-05-05 17:06 | 36.31682 | -103.74319 | 35876 ft | 383 kts | 290° |
| 2026-05-05 17:07 | 36.34551 | -103.79895 | 35868 ft | 384 kts | 290° |
| 2026-05-05 17:07 | 36.37413 | -103.85475 | 35867 ft | 384 kts | 290° |
| 2026-05-05 17:08 | 36.40279 | -103.91079 | 35864 ft | 384 kts | 290° |
| 2026-05-05 17:08 | 36.43141 | -103.96694 | 35891 ft | 385 kts | 290° |
| 2026-05-05 17:09 | 36.46003 | -104.02325 | 35877 ft | 386 kts | 290° |
| 2026-05-05 17:09 | 36.48870 | -104.07959 | 35850 ft | 386 kts | 290° |
| 2026-05-05 17:10 | 36.51747 | -104.13605 | 35846 ft | 387 kts | 290° |
| 2026-05-05 17:10 | 36.54616 | -104.19263 | 35844 ft | 387 kts | 290° |
| 2026-05-05 17:11 | 36.57487 | -104.24929 | 35872 ft | 388 kts | 290° |
| 2026-05-05 17:11 | 36.60357 | -104.30604 | 35889 ft | 388 kts | 290° |
| 2026-05-05 17:12 | 36.63234 | -104.36294 | 35945 ft | 389 kts | 290° |
| 2026-05-05 17:12 | 36.66114 | -104.41992 | 35968 ft | 389 kts | 290° |
| 2026-05-05 17:13 | 36.68987 | -104.47708 | 35975 ft | 389 kts | 290° |
| 2026-05-05 17:13 | 36.71848 | -104.53418 | 35970 ft | 389 kts | 290° |
| 2026-05-05 17:14 | 36.74715 | -104.59136 | 35963 ft | 388 kts | 290° |
| 2026-05-05 17:14 | 36.77568 | -104.64836 | 35942 ft | 386 kts | 290° |
| 2026-05-05 17:15 | 36.80421 | -104.70547 | 35923 ft | 388 kts | 290° |
| 2026-05-05 17:15 | 36.83267 | -104.76268 | 35886 ft | 388 kts | 290° |
| 2026-05-05 17:16 | 36.86116 | -104.81997 | 35840 ft | 388 kts | 290° |
| 2026-05-05 17:16 | 36.88962 | -104.87726 | 35802 ft | 388 kts | 290° |
| 2026-05-05 17:17 | 36.91813 | -104.93455 | 35819 ft | 388 kts | 290° |
| 2026-05-05 17:17 | 36.94661 | -104.99191 | 35806 ft | 389 kts | 290° |
| 2026-05-05 17:18 | 36.97508 | -105.04944 | 35811 ft | 389 kts | 290° |
| 2026-05-05 17:18 | 37.00348 | -105.10708 | 35830 ft | 390 kts | 290° |
| 2026-05-05 17:19 | 37.03192 | -105.16487 | 35825 ft | 390 kts | 290° |
| 2026-05-05 17:19 | 37.06035 | -105.22261 | 35818 ft | 389 kts | 290° |
| 2026-05-05 17:20 | 37.08873 | -105.28043 | 35816 ft | 390 kts | 290° |
| 2026-05-05 17:20 | 37.11712 | -105.33839 | 35826 ft | 390 kts | 289° |
| 2026-05-05 17:21 | 37.14551 | -105.39641 | 35816 ft | 390 kts | 289° |
| 2026-05-05 17:22 | 37.18803 | -105.48348 | 35824 ft | 391 kts | 290° |
| 2026-05-05 17:22 | 37.21657 | -105.54177 | 35810 ft | 392 kts | 290° |
| 2026-05-05 17:23 | 37.24496 | -105.60014 | 35793 ft | 392 kts | 289° |
| 2026-05-05 17:23 | 37.27324 | -105.65858 | 35895 ft | 392 kts | 289° |
| 2026-05-05 17:24 | 37.30153 | -105.71713 | 35923 ft | 393 kts | 289° |
| 2026-05-05 17:24 | 37.32991 | -105.77586 | 35953 ft | 393 kts | 289° |
| 2026-05-05 17:25 | 37.35432 | -105.82427 | 35976 ft | 402 kts | 295° |
| 2026-05-05 17:25 | 37.39363 | -105.88943 | 35976 ft | 402 kts | 295° |
| 2026-05-05 17:26 | 37.42735 | -105.94557 | 35778 ft | 402 kts | 295° |
| 2026-05-05 17:26 | 37.46092 | -106.00177 | 35773 ft | 402 kts | 294° |
| 2026-05-05 17:27 | 37.48905 | -106.04900 | 35784 ft | 403 kts | 295° |
| 2026-05-05 17:27 | 37.52250 | -106.10518 | 35818 ft | 404 kts | 295° |
| 2026-05-05 17:28 | 37.55623 | -106.16177 | 35897 ft | 404 kts | 295° |
| 2026-05-05 17:28 | 37.59000 | -106.21849 | 35920 ft | 404 kts | 295° |
| 2026-05-05 17:29 | 37.62363 | -106.27529 | 35945 ft | 404 kts | 294° |
| 2026-05-05 17:29 | 37.65744 | -106.33248 | 35957 ft | 404 kts | 294° |
| 2026-05-05 17:30 | 37.69092 | -106.38904 | 35942 ft | 405 kts | 295° |
| 2026-05-05 17:30 | 37.72470 | -106.44618 | 35942 ft | 407 kts | 295° |
| 2026-05-05 17:31 | 37.75860 | -106.50361 | 35944 ft | 408 kts | 295° |
| 2026-05-05 17:31 | 37.79243 | -106.56110 | 35896 ft | 408 kts | 295° |
| 2026-05-05 17:32 | 37.82624 | -106.61882 | 35852 ft | 408 kts | 294° |
| 2026-05-05 17:32 | 37.86008 | -106.67664 | 35816 ft | 409 kts | 294° |
| 2026-05-05 17:33 | 37.89394 | -106.73460 | 35795 ft | 410 kts | 295° |
| 2026-05-05 17:33 | 37.92777 | -106.79255 | 35811 ft | 411 kts | 295° |
| 2026-05-05 17:34 | 37.96183 | -106.85094 | 35798 ft | 411 kts | 295° |
| 2026-05-05 17:34 | 37.99576 | -106.90926 | 35782 ft | 411 kts | 295° |
| 2026-05-05 17:35 | 38.02966 | -106.96767 | 35788 ft | 411 kts | 295° |
| 2026-05-05 17:35 | 38.06360 | -107.02615 | 35781 ft | 411 kts | 295° |
| 2026-05-05 17:36 | 38.09749 | -107.08462 | 35817 ft | 412 kts | 295° |
| 2026-05-05 17:36 | 38.13141 | -107.14335 | 35779 ft | 413 kts | 295° |
| 2026-05-05 17:37 | 38.16537 | -107.20226 | 35781 ft | 414 kts | 295° |
| 2026-05-05 17:37 | 38.19935 | -107.26131 | 35781 ft | 414 kts | 296° |
| 2026-05-05 17:38 | 38.23341 | -107.32054 | 35778 ft | 415 kts | 295° |
| 2026-05-05 17:38 | 38.26742 | -107.37980 | 35785 ft | 414 kts | 295° |
| 2026-05-05 17:39 | 38.30136 | -107.43916 | 35794 ft | 415 kts | 296° |
| 2026-05-05 17:39 | 38.33537 | -107.49866 | 35781 ft | 416 kts | 296° |
| 2026-05-05 17:40 | 38.36922 | -107.55792 | 35763 ft | 416 kts | 296° |
| 2026-05-05 17:40 | 38.40325 | -107.61766 | 35754 ft | 417 kts | 296° |
| 2026-05-05 17:41 | 38.43726 | -107.67754 | 35753 ft | 418 kts | 296° |
| 2026-05-05 17:41 | 38.47135 | -107.73765 | 35769 ft | 418 kts | 296° |
| 2026-05-05 17:42 | 38.50543 | -107.79793 | 35747 ft | 419 kts | 297° |
| 2026-05-05 17:42 | 38.52248 | -107.82808 | 35908 ft | 420 kts | 297° |
| 2026-05-05 17:42 | 38.53966 | -107.85845 | 35901 ft | 420 kts | 297° |
| 2026-05-05 17:43 | 38.57388 | -107.91898 | 35904 ft | 421 kts | 296° |
| 2026-05-05 17:43 | 38.60808 | -107.97977 | 35884 ft | 421 kts | 296° |
| 2026-05-05 17:44 | 38.64227 | -108.04065 | 35858 ft | 422 kts | 297° |
| 2026-05-05 17:44 | 38.67646 | -108.10160 | 35864 ft | 422 kts | 297° |
| 2026-05-05 17:45 | 38.71073 | -108.16276 | 35866 ft | 423 kts | 297° |
| 2026-05-05 17:45 | 38.74494 | -108.22398 | 35854 ft | 423 kts | 297° |
| 2026-05-05 17:46 | 38.77890 | -108.28498 | 35832 ft | 424 kts | 297° |
| 2026-05-05 17:46 | 38.81309 | -108.34647 | 35824 ft | 424 kts | 298° |
| 2026-05-05 17:47 | 38.84738 | -108.40807 | 35792 ft | 424 kts | 298° |
| 2026-05-05 17:47 | 38.88164 | -108.46984 | 35788 ft | 426 kts | 298° |
| 2026-05-05 17:48 | 38.91594 | -108.53181 | 35795 ft | 426 kts | 298° |
| 2026-05-05 17:48 | 38.95035 | -108.59407 | 35807 ft | 427 kts | 298° |
| 2026-05-05 17:49 | 38.98460 | -108.65627 | 35825 ft | 428 kts | 299° |
| 2026-05-05 17:49 | 39.01879 | -108.71842 | 35818 ft | 428 kts | 299° |
| 2026-05-05 17:50 | 39.05324 | -108.78106 | 35727 ft | 428 kts | 298° |
| 2026-05-05 17:50 | 39.08164 | -108.84684 | 35722 ft | 424 kts | 292° |
| 2026-05-05 17:51 | 39.10941 | -108.91528 | 35715 ft | 425 kts | 292° |
| 2026-05-05 17:51 | 39.13676 | -108.98285 | 35718 ft | 426 kts | 292° |
| 2026-05-05 17:52 | 39.16408 | -109.05051 | 35721 ft | 426 kts | 292° |
| 2026-05-05 17:52 | 39.19140 | -109.11829 | 35722 ft | 426 kts | 292° |
| 2026-05-05 17:53 | 39.21861 | -109.18610 | 35717 ft | 427 kts | 292° |
| 2026-05-05 17:53 | 39.24589 | -109.25415 | 35709 ft | 427 kts | 292° |
| 2026-05-05 17:54 | 39.27322 | -109.32235 | 35717 ft | 428 kts | 292° |
| 2026-05-05 17:54 | 39.30048 | -109.39066 | 35722 ft | 429 kts | 293° |
| 2026-05-05 17:55 | 39.32780 | -109.45922 | 35723 ft | 430 kts | 293° |
| 2026-05-05 17:55 | 39.35517 | -109.52811 | 35732 ft | 431 kts | 293° |
| 2026-05-05 17:56 | 39.38258 | -109.59726 | 35733 ft | 433 kts | 293° |
| 2026-05-05 17:56 | 39.41002 | -109.66658 | 35742 ft | 434 kts | 293° |
| 2026-05-05 17:57 | 39.43742 | -109.73612 | 35757 ft | 434 kts | 294° |
| 2026-05-05 17:57 | 39.46484 | -109.80592 | 35755 ft | 435 kts | 294° |
| 2026-05-05 17:58 | 39.49251 | -109.87629 | 35744 ft | 437 kts | 294° |
| 2026-05-05 17:58 | 39.51992 | -109.94604 | 35735 ft | 438 kts | 294° |
| 2026-05-05 17:59 | 39.54747 | -110.01642 | 35745 ft | 438 kts | 294° |
| 2026-05-05 17:59 | 39.57498 | -110.08703 | 35761 ft | 439 kts | 295° |
| 2026-05-05 18:00 | 39.60246 | -110.15769 | 35748 ft | 439 kts | 296° |
| 2026-05-05 18:00 | 39.62995 | -110.22852 | 35758 ft | 440 kts | 295° |
| 2026-05-05 18:01 | 39.65747 | -110.29951 | 35766 ft | 440 kts | 295° |
| 2026-05-05 18:01 | 39.68491 | -110.37046 | 35777 ft | 440 kts | 295° |
| 2026-05-05 18:02 | 39.71229 | -110.44161 | 35791 ft | 441 kts | 295° |
| 2026-05-05 18:02 | 39.73966 | -110.51291 | 35814 ft | 441 kts | 296° |
| 2026-05-05 18:03 | 39.76698 | -110.58415 | 35830 ft | 440 kts | 296° |
| 2026-05-05 18:03 | 39.79422 | -110.65523 | 35892 ft | 439 kts | 296° |
| 2026-05-05 18:04 | 39.82148 | -110.72645 | 35816 ft | 440 kts | 296° |
| 2026-05-05 18:04 | 39.83510 | -110.76214 | 35187 ft | 443 kts | 297° |
| 2026-05-05 18:04 | 39.84882 | -110.79818 | 34274 ft | 447 kts | 298° |
| 2026-05-05 18:04 | 39.86265 | -110.83455 | 33367 ft | 448 kts | 298° |
| 2026-05-05 18:05 | 39.87644 | -110.87091 | 32414 ft | 450 kts | 298° |
| 2026-05-05 18:05 | 39.89034 | -110.90756 | 31406 ft | 453 kts | 298° |
| 2026-05-05 18:05 | 39.90431 | -110.94437 | 30407 ft | 455 kts | 298° |
| 2026-05-05 18:05 | 39.91839 | -110.98146 | 29223 ft | 459 kts | 298° |
| 2026-05-05 18:06 | 39.93232 | -111.01831 | 28068 ft | 461 kts | 298° |
| 2026-05-05 18:06 | 39.93731 | -111.03154 | 27743 ft | 460 kts | 298° |
| 2026-05-05 18:06 | 39.95999 | -111.09186 | 26629 ft | 447 kts | 298° |
| 2026-05-05 18:06 | 39.97391 | -111.12896 | 25863 ft | 443 kts | 298° |
| 2026-05-05 18:07 | 39.98738 | -111.16488 | 25125 ft | 440 kts | 298° |
| 2026-05-05 18:07 | 40.00077 | -111.20061 | 24379 ft | 436 kts | 298° |
| 2026-05-05 18:07 | 40.01402 | -111.23593 | 23669 ft | 433 kts | 298° |
| 2026-05-05 18:07 | 40.02721 | -111.27107 | 22884 ft | 430 kts | 298° |
| 2026-05-05 18:08 | 40.04026 | -111.30587 | 22177 ft | 425 kts | 298° |
| 2026-05-05 18:08 | 40.05318 | -111.34045 | 21518 ft | 421 kts | 298° |
| 2026-05-05 18:08 | 40.06594 | -111.37460 | 20881 ft | 417 kts | 298° |
| 2026-05-05 18:08 | 40.07857 | -111.40849 | 20246 ft | 413 kts | 298° |
| 2026-05-05 18:09 | 40.09105 | -111.44207 | 19658 ft | 409 kts | 298° |
| 2026-05-05 18:09 | 40.10343 | -111.47542 | 19198 ft | 404 kts | 298° |
| 2026-05-05 18:09 | 40.11540 | -111.50778 | 19071 ft | 389 kts | 298° |
| 2026-05-05 18:09 | 40.12700 | -111.53910 | 18852 ft | 378 kts | 298° |
| 2026-05-05 18:10 | 40.13838 | -111.56979 | 18648 ft | 373 kts | 298° |
| 2026-05-05 18:10 | 40.14559 | -111.58920 | 18502 ft | 368 kts | 297° |
| 2026-05-05 18:10 | 40.16052 | -111.62947 | 18187 ft | 365 kts | 298° |
| 2026-05-05 18:10 | 40.16802 | -111.64971 | 18004 ft | 364 kts | 297° |
| 2026-05-05 18:11 | 40.17914 | -111.67977 | 17727 ft | 362 kts | 297° |
| 2026-05-05 18:11 | 40.19007 | -111.70940 | 17402 ft | 361 kts | 297° |
| 2026-05-05 18:11 | 40.20080 | -111.73852 | 17137 ft | 359 kts | 297° |
| 2026-05-05 18:11 | 40.21159 | -111.76793 | 16887 ft | 358 kts | 298° |
| 2026-05-05 18:12 | 40.22235 | -111.79723 | 16903 ft | 358 kts | 298° |
| 2026-05-05 18:12 | 40.23312 | -111.82658 | 16887 ft | 359 kts | 298° |
| 2026-05-05 18:12 | 40.24362 | -111.85531 | 16889 ft | 359 kts | 298° |
| 2026-05-05 18:12 | 40.25467 | -111.88551 | 16881 ft | 359 kts | 298° |
| 2026-05-05 18:13 | 40.26590 | -111.91362 | 16878 ft | 357 kts | 305° |
| 2026-05-05 18:13 | 40.28173 | -111.93948 | 16866 ft | 353 kts | 317° |
| 2026-05-05 18:13 | 40.30052 | -111.95974 | 16576 ft | 347 kts | 328° |
| 2026-05-05 18:13 | 40.32123 | -111.97557 | 16285 ft | 344 kts | 332° |
| 2026-05-05 18:14 | 40.34196 | -111.99109 | 15999 ft | 342 kts | 332° |
| 2026-05-05 18:14 | 40.36247 | -112.00650 | 15746 ft | 340 kts | 332° |
| 2026-05-05 18:14 | 40.38307 | -112.02202 | 15463 ft | 339 kts | 332° |
| 2026-05-05 18:14 | 40.40350 | -112.03724 | 15181 ft | 336 kts | 334° |
| 2026-05-05 18:15 | 40.42515 | -112.04836 | 14913 ft | 334 kts | 345° |
| 2026-05-05 18:15 | 40.44791 | -112.05347 | 14592 ft | 330 kts | 355° |
| 2026-05-05 18:15 | 40.47072 | -112.05630 | 14281 ft | 329 kts | 354° |
| 2026-05-05 18:15 | 40.49326 | -112.05924 | 13973 ft | 327 kts | 354° |
| 2026-05-05 18:16 | 40.51604 | -112.06230 | 13650 ft | 325 kts | 354° |
| 2026-05-05 18:16 | 40.53852 | -112.06536 | 13328 ft | 324 kts | 354° |
| 2026-05-05 18:16 | 40.56096 | -112.06842 | 13024 ft | 323 kts | 354° |
| 2026-05-05 18:16 | 40.58317 | -112.07144 | 12707 ft | 322 kts | 354° |
| 2026-05-05 18:17 | 40.60540 | -112.07445 | 12398 ft | 319 kts | 354° |
| 2026-05-05 18:17 | 40.62757 | -112.07744 | 12087 ft | 321 kts | 354° |
| 2026-05-05 18:17 | 40.64974 | -112.08034 | 11898 ft | 320 kts | 354° |
| 2026-05-05 18:17 | 40.67196 | -112.08300 | 11813 ft | 322 kts | 354° |
| 2026-05-05 18:18 | 40.69415 | -112.08553 | 11695 ft | 321 kts | 354° |
| 2026-05-05 18:18 | 40.71635 | -112.08800 | 11573 ft | 321 kts | 354° |
| 2026-05-05 18:18 | 40.73837 | -112.09046 | 11438 ft | 309 kts | 354° |
| 2026-05-05 18:18 | 40.75938 | -112.09285 | 11274 ft | 298 kts | 354° |
| 2026-05-05 18:19 | 40.77966 | -112.09520 | 11085 ft | 289 kts | 354° |
| 2026-05-05 18:19 | 40.79984 | -112.09754 | 10998 ft | 287 kts | 354° |
| 2026-05-05 18:19 | 40.81974 | -112.09989 | 11003 ft | 288 kts | 354° |
| 2026-05-05 18:19 | 40.83951 | -112.10225 | 10995 ft | 279 kts | 354° |
| 2026-05-05 18:20 | 40.85850 | -112.10453 | 10867 ft | 269 kts | 353° |
| 2026-05-05 18:20 | 40.87682 | -112.10677 | 10741 ft | 258 kts | 352° |
| 2026-05-05 18:20 | 40.89437 | -112.10894 | 10592 ft | 248 kts | 352° |
| 2026-05-05 18:20 | 40.91131 | -112.11101 | 10430 ft | 241 kts | 353° |
| 2026-05-05 18:21 | 40.92756 | -112.11299 | 10291 ft | 234 kts | 352° |
| 2026-05-05 18:21 | 40.94365 | -112.11494 | 10192 ft | 222 kts | 352° |
| 2026-05-05 18:21 | 40.95855 | -112.11673 | 10046 ft | 210 kts | 353° |
| 2026-05-05 18:21 | 40.97299 | -112.11848 | 9726 ft | 207 kts | 351° |
| 2026-05-05 18:22 | 40.98734 | -112.12023 | 9353 ft | 207 kts | 352° |
| 2026-05-05 18:22 | 41.00145 | -112.12196 | 8980 ft | 207 kts | 351° |
| 2026-05-05 18:22 | 41.01594 | -112.12377 | 8610 ft | 207 kts | 352° |
| 2026-05-05 18:22 | 41.03028 | -112.12492 | 8252 ft | 208 kts | 5° |
| 2026-05-05 18:23 | 41.04315 | -112.11712 | 8023 ft | 210 kts | 43° |
| 2026-05-05 18:23 | 41.05018 | -112.10062 | 8003 ft | 214 kts | 74° |
| 2026-05-05 18:23 | 41.05339 | -112.08074 | 7993 ft | 214 kts | 80° |
| 2026-05-05 18:23 | 41.05591 | -112.06130 | 7998 ft | 215 kts | 80° |
| 2026-05-05 18:24 | 41.05764 | -112.04169 | 7997 ft | 214 kts | 95° |
| 2026-05-05 18:24 | 41.05250 | -112.02367 | 7976 ft | 208 kts | 126° |
| 2026-05-05 18:24 | 41.04313 | -112.00976 | 7654 ft | 204 kts | 149° |
| 2026-05-05 18:24 | 41.03026 | -112.00302 | 7505 ft | 199 kts | 174° |
| 2026-05-05 18:25 | 41.01647 | -112.00140 | 7503 ft | 200 kts | 178° |
| 2026-05-05 18:25 | 41.00708 | -112.00026 | 7494 ft | 201 kts | 178° |
| 2026-05-05 18:25 | 40.98871 | -111.99807 | 7489 ft | 200 kts | 177° |
| 2026-05-05 18:25 | 40.97481 | -111.99644 | 7435 ft | 200 kts | 177° |
| 2026-05-05 18:26 | 40.96098 | -111.99482 | 7249 ft | 197 kts | 178° |
| 2026-05-05 18:26 | 40.94752 | -111.99324 | 7008 ft | 191 kts | 177° |
| 2026-05-05 18:26 | 40.93476 | -111.99176 | 6789 ft | 185 kts | 176° |
| 2026-05-05 18:26 | 40.92190 | -111.99026 | 6570 ft | 179 kts | 176° |
| 2026-05-05 18:27 | 40.90982 | -111.98884 | 6373 ft | 170 kts | 176° |
| 2026-05-05 18:27 | 40.89810 | -111.98748 | 6151 ft | 168 kts | 177° |
| 2026-05-05 18:27 | 40.88662 | -111.98615 | 5934 ft | 162 kts | 176° |
| 2026-05-05 18:27 | 40.87594 | -111.98490 | 5727 ft | 145 kts | 177° |
| 2026-05-05 18:28 | 40.85616 | -111.98261 | 5320 ft | 144 kts | 175° |
| 2026-05-05 18:28 | 40.84624 | -111.98144 | 5113 ft | 142 kts | 178° |
| 2026-05-05 18:28 | 40.83658 | -111.98032 | 4901 ft | 139 kts | 179° |
| 2026-05-05 18:29 | 40.82707 | -111.97909 | 4754 ft | 132 kts | 178° |
| 2026-05-05 18:29 | 40.81795 | -111.97789 | 4482 ft | 130 kts | 178° |
| 2026-05-05 18:29 | 40.80890 | -111.97725 | 4312 ft | 130 kts | 174° |
| 2026-05-05 18:29 | 40.80015 | -111.97613 | 4245 ft | 117 kts | 174° |
| 2026-05-05 18:30 | 40.79333 | -111.97532 | 4228 ft | 75 kts | 174° |
| 2026-05-05 18:30 | 40.78974 | -111.97487 | 4230 ft | 36 kts | 175° |
| 2026-05-05 18:30 | 40.78747 | -111.97461 | 4233 ft | 29 kts | 175° |
| 2026-05-05 18:30 | 40.78567 | -111.97507 | 4229 ft | 25 kts | 200° |
| 2026-05-05 18:31 | 40.78480 | -111.97556 | 4228 ft | 1 kts | 210° |
| 2026-05-05 18:31 | 40.78480 | -111.97557 | 4228 ft | 0 kts | 210° |
| 2026-05-05 18:32 | 40.78474 | -111.97564 | 4228 ft | 3 kts | 226° |
| 2026-05-05 18:32 | 40.78458 | -111.97616 | 4227 ft | 13 kts | 261° |
| 2026-05-05 18:33 | 40.78479 | -111.97740 | 4227 ft | 13 kts | 334° |
| 2026-05-05 18:33 | 40.78549 | -111.97755 | 4230 ft | 8 kts | 354° |
| 2026-05-05 18:33 | 40.78590 | -111.97760 | 4232 ft | 5 kts | 355° |
| 2026-05-05 18:33 | 40.78626 | -111.97764 | 4232 ft | 5 kts | 355° |
| 2026-05-05 18:34 | 40.78669 | -111.97769 | 4233 ft | 7 kts | 355° |
| 2026-05-05 18:34 | 40.78718 | -111.97775 | 4233 ft | 8 kts | 355° |
| 2026-05-05 18:34 | 40.78813 | -111.97785 | 4233 ft | 17 kts | 354° |
| 2026-05-05 18:34 | 40.78922 | -111.97808 | 4234 ft | 15 kts | 349° |
| 2026-05-05 18:35 | 40.78999 | -111.97862 | 4233 ft | 12 kts | 274° |
| 2026-05-05 18:35 | 40.78983 | -111.97986 | 4232 ft | 15 kts | 260° |
| 2026-05-05 18:35 | 40.78988 | -111.98129 | 4231 ft | 16 kts | 293° |
| 2026-05-05 18:35 | 40.79065 | -111.98226 | 4230 ft | 15 kts | 324° |
| 2026-05-05 18:36 | 40.79147 | -111.98306 | 4230 ft | 14 kts | 317° |
| 2026-05-05 18:36 | 40.79160 | -111.98414 | 4231 ft | 12 kts | 265° |
| 2026-05-05 18:36 | 40.79154 | -111.98530 | 4231 ft | 13 kts | 266° |
| 2026-05-05 18:36 | 40.79147 | -111.98657 | 4232 ft | 15 kts | 266° |
| 2026-05-05 18:37 | 40.79139 | -111.98810 | 4230 ft | 13 kts | 264° |
| 2026-05-05 18:37 | 40.79081 | -111.98900 | 4230 ft | 14 kts | 218° |
| 2026-05-05 18:37 | 40.79014 | -111.98958 | 4229 ft | 10 kts | 196° |
| 2026-05-05 18:37 | 40.78948 | -111.98947 | 4229 ft | 10 kts | 176° |
| 2026-05-05 18:38 | 40.78943 | -111.98947 | 4229 ft | 0 kts | 176° |